Stonington, ME

10:01 PM EST on December 03, 2016 (GMT -0500)
Wayfarer Marine | | Change Station

Elev 15 ft 44.21 °N, 69.06 °W | Updated 29 days ago

Clear
Clear
33 °F
Feels Like 24 °F
N
15
Wind Variable Wind from NNW
Gusts mph

Today
High -- | Low -- °F
--% Chance of Precip.
Yesterday
High -- | Low -- °F
Precip. -- in
Pressure 29.98 in
Visibility 10.0 miles
Clouds Clear
Windchill 24 °F
Dew Point 26 °F
Humidity 77%
Rainfall in
Snow Depth Not available.
6:52 AM 3:56 PM
Waxing Crescent, 19% visible
METAR KRKD 040256Z AUTO 30004KT 10SM CLR 00/M04 A2997 RMK AO2 SLP151 T00001039 51015 FZRANO
Pressure 29.98 in
Visibility 10.0 miles
Clouds Clear
Windchill 24 °F
Dew Point 26 °F
Humidity 77%
Rainfall in
Snow Depth Not available.
6:52 AM 3:56 PM
Waxing Crescent, 19% visible
METAR KRKD 040256Z AUTO 30004KT 10SM CLR 00/M04 A2997 RMK AO2 SLP151 T00001039 51015 FZRANO

10-Day Weather Forecast

Almanac

Astronomy

Dec. 03, 2016 Rise Set
Actual Time
Civil Twilight
Nautical Twilight
Astronomical Twilight
Moon
Length of Visible Light
Length of Day
Tomorrow will be .
, % of the Moon is Illuminated

Today's Extremes

State Highs State Lows

Community

WunderPhotos

Upload Photos

1,955,568 photos uploaded!

WunderBlog® & News

Nearby

Air Quality

  Air Quality AQ Index Pollutant
Not available.

Snow Depth

Station Depth Elevation

Earthquake Activity

City Distance Mag. Time & Date
Minimum magnitude displayed is 2.5.

Coastal Water Temperatures

Place Temperature

Stations

Nearby Weather Stations

Station Location Temp. Windchill Dew Point Humidity Wind Precip. Elev Updated Type
                   

Watches & Warnings

There are currently no watches in effect.